sensor_id;sensor_type;location;lat;lon;timestamp;P1;durP1;ratioP1;P2;durP2;ratioP2
21183;SDS011;18176;49.502;11.754;2023-01-26T00:00:24;35.27;;;16.20;;
21183;SDS011;18176;49.502;11.754;2023-01-26T00:04:26;33.23;;;15.20;;
21183;SDS011;18176;49.502;11.754;2023-01-26T00:08:26;33.10;;;14.67;;
21183;SDS011;18176;49.502;11.754;2023-01-26T00:12:26;30.40;;;13.40;;
21183;SDS011;18176;49.502;11.754;2023-01-26T00:16:28;31.70;;;14.53;;
21183;SDS011;18176;49.502;11.754;2023-01-26T00:20:29;27.53;;;13.00;;
21183;SDS011;18176;49.502;11.754;2023-01-26T00:24:29;28.20;;;13.70;;
21183;SDS011;18176;49.502;11.754;2023-01-26T00:28:29;28.20;;;13.97;;
21183;SDS011;18176;49.502;11.754;2023-01-26T00:32:33;25.30;;;12.50;;
21183;SDS011;18176;49.502;11.754;2023-01-26T00:36:33;26.77;;;12.53;;
21183;SDS011;18176;49.502;11.754;2023-01-26T00:40:33;29.83;;;13.17;;
21183;SDS011;18176;49.502;11.754;2023-01-26T00:44:34;26.37;;;12.33;;
21183;SDS011;18176;49.502;11.754;2023-01-26T00:48:39;27.50;;;13.40;;
21183;SDS011;18176;49.502;11.754;2023-01-26T00:52:39;29.20;;;13.10;;
21183;SDS011;18176;49.502;11.754;2023-01-26T00:56:39;26.00;;;12.80;;
21183;SDS011;18176;49.502;11.754;2023-01-26T01:00:39;27.33;;;13.00;;
21183;SDS011;18176;49.502;11.754;2023-01-26T01:04:42;31.00;;;14.03;;
21183;SDS011;18176;49.502;11.754;2023-01-26T01:08:42;25.50;;;11.77;;
21183;SDS011;18176;49.502;11.754;2023-01-26T01:12:42;23.53;;;11.37;;
21183;SDS011;18176;49.502;11.754;2023-01-26T01:16:44;20.73;;;10.33;;
21183;SDS011;18176;49.502;11.754;2023-01-26T01:20:47;24.23;;;12.00;;
21183;SDS011;18176;49.502;11.754;2023-01-26T01:24:47;27.03;;;12.00;;
21183;SDS011;18176;49.502;11.754;2023-01-26T01:28:47;23.07;;;10.90;;
21183;SDS011;18176;49.502;11.754;2023-01-26T01:32:47;23.70;;;11.70;;
21183;SDS011;18176;49.502;11.754;2023-01-26T01:36:51;28.50;;;12.60;;
21183;SDS011;18176;49.502;11.754;2023-01-26T01:40:51;27.47;;;12.63;;
21183;SDS011;18176;49.502;11.754;2023-01-26T01:49:37;26.50;;;11.47;;
21183;SDS011;18176;49.502;11.754;2023-01-26T01:53:47;24.43;;;11.80;;
21183;SDS011;18176;49.502;11.754;2023-01-26T01:57:52;26.47;;;12.20;;
21183;SDS011;18176;49.502;11.754;2023-01-26T02:01:56;28.97;;;12.27;;
21183;SDS011;18176;49.502;11.754;2023-01-26T02:05:58;26.63;;;12.83;;
21183;SDS011;18176;49.502;11.754;2023-01-26T02:10:09;24.33;;;11.77;;
21183;SDS011;18176;49.502;11.754;2023-01-26T02:14:16;27.10;;;12.47;;
21183;SDS011;18176;49.502;11.754;2023-01-26T02:18:17;29.13;;;12.93;;
21183;SDS011;18176;49.502;11.754;2023-01-26T02:22:20;30.43;;;12.87;;
21183;SDS011;18176;49.502;11.754;2023-01-26T02:26:38;28.73;;;12.83;;
21183;SDS011;18176;49.502;11.754;2023-01-26T02:30:38;26.33;;;12.30;;
21183;SDS011;18176;49.502;11.754;2023-01-26T02:34:39;27.90;;;13.10;;
21183;SDS011;18176;49.502;11.754;2023-01-26T02:38:41;25.57;;;12.13;;
21183;SDS011;18176;49.502;11.754;2023-01-26T02:42:52;26.93;;;12.10;;
21183;SDS011;18176;49.502;11.754;2023-01-26T02:46:55;26.50;;;12.23;;
21183;SDS011;18176;49.502;11.754;2023-01-26T02:50:55;25.77;;;11.90;;
21183;SDS011;18176;49.502;11.754;2023-01-26T02:54:56;26.23;;;12.30;;
21183;SDS011;18176;49.502;11.754;2023-01-26T02:59:11;27.70;;;12.83;;
21183;SDS011;18176;49.502;11.754;2023-01-26T03:03:12;26.37;;;12.40;;
21183;SDS011;18176;49.502;11.754;2023-01-26T03:07:16;25.13;;;11.70;;
21183;SDS011;18176;49.502;11.754;2023-01-26T03:11:19;26.27;;;12.20;;
21183;SDS011;18176;49.502;11.754;2023-01-26T03:15:22;22.23;;;10.90;;
21183;SDS011;18176;49.502;11.754;2023-01-26T03:19:35;23.67;;;11.10;;
21183;SDS011;18176;49.502;11.754;2023-01-26T03:23:47;23.57;;;12.07;;
21183;SDS011;18176;49.502;11.754;2023-01-26T03:28:01;21.73;;;10.97;;
21183;SDS011;18176;49.502;11.754;2023-01-26T03:32:05;24.73;;;11.97;;
21183;SDS011;18176;49.502;11.754;2023-01-26T03:36:07;27.87;;;12.73;;
21183;SDS011;18176;49.502;11.754;2023-01-26T03:40:12;26.33;;;12.20;;
21183;SDS011;18176;49.502;11.754;2023-01-26T03:44:25;26.20;;;12.47;;
21183;SDS011;18176;49.502;11.754;2023-01-26T03:48:41;27.40;;;12.10;;
21183;SDS011;18176;49.502;11.754;2023-01-26T03:52:53;27.50;;;13.07;;
21183;SDS011;18176;49.502;11.754;2023-01-26T03:57:06;30.37;;;12.37;;
21183;SDS011;18176;49.502;11.754;2023-01-26T04:01:06;25.27;;;11.73;;
21183;SDS011;18176;49.502;11.754;2023-01-26T04:05:19;28.47;;;12.87;;
21183;SDS011;18176;49.502;11.754;2023-01-26T04:09:32;27.47;;;12.80;;
21183;SDS011;18176;49.502;11.754;2023-01-26T04:13:35;25.70;;;12.27;;
21183;SDS011;18176;49.502;11.754;2023-01-26T04:17:56;26.13;;;12.53;;
21183;SDS011;18176;49.502;11.754;2023-01-26T04:22:12;28.43;;;12.60;;
21183;SDS011;18176;49.502;11.754;2023-01-26T04:26:16;28.53;;;13.43;;
21183;SDS011;18176;49.502;11.754;2023-01-26T04:30:16;28.23;;;12.63;;
21183;SDS011;18176;49.502;11.754;2023-01-26T04:34:18;26.87;;;12.37;;
21183;SDS011;18176;49.502;11.754;2023-01-26T04:38:21;29.17;;;12.90;;
21183;SDS011;18176;49.502;11.754;2023-01-26T04:42:21;28.90;;;12.73;;
21183;SDS011;18176;49.502;11.754;2023-01-26T04:46:23;30.83;;;13.60;;
21183;SDS011;18176;49.502;11.754;2023-01-26T04:50:24;29.77;;;12.63;;
21183;SDS011;18176;49.502;11.754;2023-01-26T04:54:26;31.97;;;13.23;;
21183;SDS011;18176;49.502;11.754;2023-01-26T04:58:27;28.33;;;12.30;;
21183;SDS011;18176;49.502;11.754;2023-01-26T05:02:29;27.73;;;12.40;;
21183;SDS011;18176;49.502;11.754;2023-01-26T05:06:29;24.43;;;10.90;;
21183;SDS011;18176;49.502;11.754;2023-01-26T05:10:32;29.03;;;12.93;;
21183;SDS011;18176;49.502;11.754;2023-01-26T05:14:49;29.70;;;13.30;;
21183;SDS011;18176;49.502;11.754;2023-01-26T05:19:09;29.40;;;12.20;;
21183;SDS011;18176;49.502;11.754;2023-01-26T05:23:17;30.13;;;13.30;;
21183;SDS011;18176;49.502;11.754;2023-01-26T05:27:55;29.30;;;13.03;;
21183;SDS011;18176;49.502;11.754;2023-01-26T05:31:56;29.67;;;13.47;;
21183;SDS011;18176;49.502;11.754;2023-01-26T05:35:56;30.03;;;13.63;;
21183;SDS011;18176;49.502;11.754;2023-01-26T05:39:57;26.40;;;12.90;;
21183;SDS011;18176;49.502;11.754;2023-01-26T05:44:00;26.93;;;11.80;;
21183;SDS011;18176;49.502;11.754;2023-01-26T05:48:08;23.83;;;10.93;;
21183;SDS011;18176;49.502;11.754;2023-01-26T05:52:08;22.47;;;10.53;;
21183;SDS011;18176;49.502;11.754;2023-01-26T05:56:10;26.13;;;10.43;;
21183;SDS011;18176;49.502;11.754;2023-01-26T06:00:19;22.03;;;10.23;;
21183;SDS011;18176;49.502;11.754;2023-01-26T06:04:28;23.67;;;9.47;;
21183;SDS011;18176;49.502;11.754;2023-01-26T06:08:30;19.27;;;9.40;;
21183;SDS011;18176;49.502;11.754;2023-01-26T06:12:59;24.90;;;10.90;;
21183;SDS011;18176;49.502;11.754;2023-01-26T06:17:16;24.27;;;9.70;;
21183;SDS011;18176;49.502;11.754;2023-01-26T06:21:21;22.97;;;9.37;;
21183;SDS011;18176;49.502;11.754;2023-01-26T06:25:22;22.70;;;10.03;;
21183;SDS011;18176;49.502;11.754;2023-01-26T06:29:22;20.67;;;9.57;;
21183;SDS011;18176;49.502;11.754;2023-01-26T06:33:25;21.90;;;9.63;;
21183;SDS011;18176;49.502;11.754;2023-01-26T06:37:26;20.63;;;9.37;;
21183;SDS011;18176;49.502;11.754;2023-01-26T06:41:26;21.63;;;9.03;;
21183;SDS011;18176;49.502;11.754;2023-01-26T06:45:26;19.37;;;8.70;;
21183;SDS011;18176;49.502;11.754;2023-01-26T06:49:29;18.70;;;8.83;;
21183;SDS011;18176;49.502;11.754;2023-01-26T06:53:31;19.17;;;8.47;;
21183;SDS011;18176;49.502;11.754;2023-01-26T06:57:54;20.40;;;9.93;;
21183;SDS011;18176;49.502;11.754;2023-01-26T07:02:15;21.87;;;9.10;;
21183;SDS011;18176;49.502;11.754;2023-01-26T07:06:20;17.60;;;8.67;;
21183;SDS011;18176;49.502;11.754;2023-01-26T07:10:20;22.07;;;9.47;;
21183;SDS011;18176;49.502;11.754;2023-01-26T07:14:20;19.70;;;9.53;;
21183;SDS011;18176;49.502;11.754;2023-01-26T07:18:20;18.93;;;9.13;;
21183;SDS011;18176;49.502;11.754;2023-01-26T07:22:23;22.30;;;9.47;;
21183;SDS011;18176;49.502;11.754;2023-01-26T07:26:23;19.93;;;8.63;;
21183;SDS011;18176;49.502;11.754;2023-01-26T07:30:24;18.10;;;8.80;;
21183;SDS011;18176;49.502;11.754;2023-01-26T07:34:25;16.50;;;8.17;;
21183;SDS011;18176;49.502;11.754;2023-01-26T07:38:27;19.47;;;9.73;;
21183;SDS011;18176;49.502;11.754;2023-01-26T07:42:28;22.43;;;9.63;;
21183;SDS011;18176;49.502;11.754;2023-01-26T07:46:35;20.90;;;10.57;;
21183;SDS011;18176;49.502;11.754;2023-01-26T07:50:40;19.33;;;8.87;;
21183;SDS011;18176;49.502;11.754;2023-01-26T07:54:43;21.87;;;9.30;;
21183;SDS011;18176;49.502;11.754;2023-01-26T07:58:44;16.90;;;8.63;;
21183;SDS011;18176;49.502;11.754;2023-01-26T08:02:49;16.37;;;8.33;;
21183;SDS011;18176;49.502;11.754;2023-01-26T08:06:49;15.90;;;8.20;;
21183;SDS011;18176;49.502;11.754;2023-01-26T08:10:54;15.47;;;7.77;;
21183;SDS011;18176;49.502;11.754;2023-01-26T08:14:56;19.53;;;10.50;;
21183;SDS011;18176;49.502;11.754;2023-01-26T08:18:56;18.53;;;9.53;;
21183;SDS011;18176;49.502;11.754;2023-01-26T08:22:56;13.37;;;6.97;;
21183;SDS011;18176;49.502;11.754;2023-01-26T08:26:59;14.87;;;7.17;;
21183;SDS011;18176;49.502;11.754;2023-01-26T08:31:02;14.17;;;7.07;;
21183;SDS011;18176;49.502;11.754;2023-01-26T08:35:03;16.67;;;8.03;;
21183;SDS011;18176;49.502;11.754;2023-01-26T08:39:04;15.47;;;7.70;;
21183;SDS011;18176;49.502;11.754;2023-01-26T08:43:07;13.93;;;7.60;;
21183;SDS011;18176;49.502;11.754;2023-01-26T08:47:07;14.40;;;7.07;;
21183;SDS011;18176;49.502;11.754;2023-01-26T08:51:08;14.00;;;7.23;;
21183;SDS011;18176;49.502;11.754;2023-01-26T08:55:09;14.80;;;7.63;;
21183;SDS011;18176;49.502;11.754;2023-01-26T08:59:12;15.40;;;8.07;;
21183;SDS011;18176;49.502;11.754;2023-01-26T09:03:12;13.97;;;7.03;;
21183;SDS011;18176;49.502;11.754;2023-01-26T09:07:13;14.97;;;7.17;;
21183;SDS011;18176;49.502;11.754;2023-01-26T09:11:13;13.10;;;6.87;;
21183;SDS011;18176;49.502;11.754;2023-01-26T09:15:16;13.27;;;6.83;;
21183;SDS011;18176;49.502;11.754;2023-01-26T09:19:16;13.77;;;6.53;;
21183;SDS011;18176;49.502;11.754;2023-01-26T09:23:16;15.40;;;6.97;;
21183;SDS011;18176;49.502;11.754;2023-01-26T09:27:16;13.23;;;6.67;;
21183;SDS011;18176;49.502;11.754;2023-01-26T09:31:31;12.00;;;6.30;;
21183;SDS011;18176;49.502;11.754;2023-01-26T09:35:32;11.07;;;6.00;;
21183;SDS011;18176;49.502;11.754;2023-01-26T09:39:32;13.07;;;6.30;;
21183;SDS011;18176;49.502;11.754;2023-01-26T09:43:37;13.23;;;7.07;;
21183;SDS011;18176;49.502;11.754;2023-01-26T09:47:49;14.30;;;6.93;;
21183;SDS011;18176;49.502;11.754;2023-01-26T09:52:12;14.03;;;7.03;;
21183;SDS011;18176;49.502;11.754;2023-01-26T09:56:27;14.07;;;7.43;;
21183;SDS011;18176;49.502;11.754;2023-01-26T10:00:34;15.80;;;7.50;;
21183;SDS011;18176;49.502;11.754;2023-01-26T10:04:47;13.60;;;6.93;;
21183;SDS011;18176;49.502;11.754;2023-01-26T10:08:54;12.47;;;6.77;;
21183;SDS011;18176;49.502;11.754;2023-01-26T10:13:01;10.97;;;6.20;;
21183;SDS011;18176;49.502;11.754;2023-01-26T10:17:02;13.70;;;7.33;;
21183;SDS011;18176;49.502;11.754;2023-01-26T10:21:08;13.87;;;7.00;;
21183;SDS011;18176;49.502;11.754;2023-01-26T10:25:15;10.17;;;5.37;;
21183;SDS011;18176;49.502;11.754;2023-01-26T10:29:20;9.70;;;5.47;;
21183;SDS011;18176;49.502;11.754;2023-01-26T10:33:23;11.67;;;5.93;;
21183;SDS011;18176;49.502;11.754;2023-01-26T10:37:35;12.23;;;6.20;;
21183;SDS011;18176;49.502;11.754;2023-01-26T10:41:37;12.90;;;6.00;;
21183;SDS011;18176;49.502;11.754;2023-01-26T10:45:43;13.60;;;7.20;;
21183;SDS011;18176;49.502;11.754;2023-01-26T10:49:46;10.83;;;6.23;;
21183;SDS011;18176;49.502;11.754;2023-01-26T10:53:53;11.43;;;6.40;;
21183;SDS011;18176;49.502;11.754;2023-01-26T11:02:47;13.57;;;6.80;;
21183;SDS011;18176;49.502;11.754;2023-01-26T11:06:50;12.83;;;6.63;;
21183;SDS011;18176;49.502;11.754;2023-01-26T11:10:54;12.57;;;6.63;;
21183;SDS011;18176;49.502;11.754;2023-01-26T11:14:58;12.73;;;6.50;;
21183;SDS011;18176;49.502;11.754;2023-01-26T11:19:02;10.47;;;5.63;;
21183;SDS011;18176;49.502;11.754;2023-01-26T11:23:13;9.10;;;5.23;;
21183;SDS011;18176;49.502;11.754;2023-01-26T11:27:29;10.07;;;5.80;;
21183;SDS011;18176;49.502;11.754;2023-01-26T11:31:49;11.63;;;6.33;;
21183;SDS011;18176;49.502;11.754;2023-01-26T11:36:00;11.57;;;6.23;;
21183;SDS011;18176;49.502;11.754;2023-01-26T11:40:18;10.27;;;5.77;;
21183;SDS011;18176;49.502;11.754;2023-01-26T11:44:43;11.27;;;6.13;;
21183;SDS011;18176;49.502;11.754;2023-01-26T11:49:02;12.83;;;6.50;;
21183;SDS011;18176;49.502;11.754;2023-01-26T11:53:28;10.87;;;5.73;;
21183;SDS011;18176;49.502;11.754;2023-01-26T11:57:58;13.03;;;7.00;;
21183;SDS011;18176;49.502;11.754;2023-01-26T12:02:26;11.63;;;6.20;;
21183;SDS011;18176;49.502;11.754;2023-01-26T12:06:35;13.73;;;6.87;;
21183;SDS011;18176;49.502;11.754;2023-01-26T12:10:38;11.47;;;6.47;;
21183;SDS011;18176;49.502;11.754;2023-01-26T12:14:48;13.70;;;6.40;;
21183;SDS011;18176;49.502;11.754;2023-01-26T12:19:08;16.57;;;8.17;;
21183;SDS011;18176;49.502;11.754;2023-01-26T12:23:20;13.60;;;7.07;;
21183;SDS011;18176;49.502;11.754;2023-01-26T12:27:35;13.13;;;7.13;;
21183;SDS011;18176;49.502;11.754;2023-01-26T12:31:45;12.83;;;6.90;;
21183;SDS011;18176;49.502;11.754;2023-01-26T12:40:28;13.27;;;6.97;;
21183;SDS011;18176;49.502;11.754;2023-01-26T12:44:39;12.37;;;7.00;;
21183;SDS011;18176;49.502;11.754;2023-01-26T12:48:43;12.53;;;6.73;;
21183;SDS011;18176;49.502;11.754;2023-01-26T12:52:52;11.80;;;6.33;;
21183;SDS011;18176;49.502;11.754;2023-01-26T12:56:58;12.20;;;6.27;;
21183;SDS011;18176;49.502;11.754;2023-01-26T13:01:05;10.17;;;6.00;;
21183;SDS011;18176;49.502;11.754;2023-01-26T13:05:17;7.83;;;4.77;;
21183;SDS011;18176;49.502;11.754;2023-01-26T13:09:26;7.33;;;4.30;;
21183;SDS011;18176;49.502;11.754;2023-01-26T13:13:28;8.53;;;4.57;;
21183;SDS011;18176;49.502;11.754;2023-01-26T13:17:46;9.63;;;5.00;;
21183;SDS011;18176;49.502;11.754;2023-01-26T13:21:58;11.00;;;6.20;;
21183;SDS011;18176;49.502;11.754;2023-01-26T13:26:12;10.87;;;6.00;;
21183;SDS011;18176;49.502;11.754;2023-01-26T13:34:44;11.13;;;6.53;;
21183;SDS011;18176;49.502;11.754;2023-01-26T13:38:51;12.13;;;6.47;;
21183;SDS011;18176;49.502;11.754;2023-01-26T13:43:02;11.87;;;6.43;;
21183;SDS011;18176;49.502;11.754;2023-01-26T13:47:23;12.30;;;6.70;;
21183;SDS011;18176;49.502;11.754;2023-01-26T13:51:59;12.73;;;6.90;;
21183;SDS011;18176;49.502;11.754;2023-01-26T13:56:05;12.37;;;6.87;;
21183;SDS011;18176;49.502;11.754;2023-01-26T14:00:22;12.07;;;6.43;;
21183;SDS011;18176;49.502;11.754;2023-01-26T14:04:27;16.03;;;8.03;;
21183;SDS011;18176;49.502;11.754;2023-01-26T14:08:30;15.73;;;8.10;;
21183;SDS011;18176;49.502;11.754;2023-01-26T14:12:34;13.20;;;6.90;;
21183;SDS011;18176;49.502;11.754;2023-01-26T14:16:45;17.90;;;8.87;;
21183;SDS011;18176;49.502;11.754;2023-01-26T14:20:59;16.33;;;7.90;;
21183;SDS011;18176;49.502;11.754;2023-01-26T14:25:07;12.43;;;7.23;;
21183;SDS011;18176;49.502;11.754;2023-01-26T14:29:14;13.57;;;7.13;;
21183;SDS011;18176;49.502;11.754;2023-01-26T14:33:23;16.73;;;8.50;;
21183;SDS011;18176;49.502;11.754;2023-01-26T14:37:23;16.77;;;9.10;;
21183;SDS011;18176;49.502;11.754;2023-01-26T14:41:26;16.90;;;9.37;;
21183;SDS011;18176;49.502;11.754;2023-01-26T14:45:30;15.07;;;8.23;;
21183;SDS011;18176;49.502;11.754;2023-01-26T14:49:39;15.30;;;8.37;;
21183;SDS011;18176;49.502;11.754;2023-01-26T14:53:47;19.50;;;9.90;;
21183;SDS011;18176;49.502;11.754;2023-01-26T14:57:50;20.70;;;11.00;;
21183;SDS011;18176;49.502;11.754;2023-01-26T15:02:01;20.87;;;10.23;;
21183;SDS011;18176;49.502;11.754;2023-01-26T15:06:20;19.07;;;9.93;;
21183;SDS011;18176;49.502;11.754;2023-01-26T15:10:29;22.33;;;11.40;;
21183;SDS011;18176;49.502;11.754;2023-01-26T15:14:35;16.37;;;8.57;;
21183;SDS011;18176;49.502;11.754;2023-01-26T15:18:45;17.53;;;8.37;;
21183;SDS011;18176;49.502;11.754;2023-01-26T15:22:59;21.37;;;10.30;;
21183;SDS011;18176;49.502;11.754;2023-01-26T15:27:05;18.23;;;9.70;;
21183;SDS011;18176;49.502;11.754;2023-01-26T15:31:06;19.40;;;9.60;;
21183;SDS011;18176;49.502;11.754;2023-01-26T15:35:18;21.87;;;11.93;;
21183;SDS011;18176;49.502;11.754;2023-01-26T15:39:25;19.10;;;9.77;;
21183;SDS011;18176;49.502;11.754;2023-01-26T15:43:26;20.60;;;11.00;;
21183;SDS011;18176;49.502;11.754;2023-01-26T15:47:26;27.07;;;13.37;;
21183;SDS011;18176;49.502;11.754;2023-01-26T15:51:26;29.97;;;13.90;;
21183;SDS011;18176;49.502;11.754;2023-01-26T15:55:32;26.47;;;12.57;;
21183;SDS011;18176;49.502;11.754;2023-01-26T15:59:33;25.27;;;12.57;;
21183;SDS011;18176;49.502;11.754;2023-01-26T16:03:34;25.77;;;12.87;;
21183;SDS011;18176;49.502;11.754;2023-01-26T16:07:34;27.13;;;14.23;;
21183;SDS011;18176;49.502;11.754;2023-01-26T16:11:38;24.50;;;12.13;;
21183;SDS011;18176;49.502;11.754;2023-01-26T16:15:46;24.40;;;11.47;;
21183;SDS011;18176;49.502;11.754;2023-01-26T16:19:49;23.13;;;10.90;;
21183;SDS011;18176;49.502;11.754;2023-01-26T16:23:49;22.50;;;11.30;;
21183;SDS011;18176;49.502;11.754;2023-01-26T16:27:52;23.67;;;10.47;;
21183;SDS011;18176;49.502;11.754;2023-01-26T16:31:53;20.67;;;10.60;;
21183;SDS011;18176;49.502;11.754;2023-01-26T16:35:53;22.17;;;10.87;;
21183;SDS011;18176;49.502;11.754;2023-01-26T16:39:53;26.60;;;14.17;;
21183;SDS011;18176;49.502;11.754;2023-01-26T16:43:56;25.00;;;12.57;;
21183;SDS011;18176;49.502;11.754;2023-01-26T16:47:59;28.63;;;13.43;;
21183;SDS011;18176;49.502;11.754;2023-01-26T16:51:59;31.53;;;13.60;;
21183;SDS011;18176;49.502;11.754;2023-01-26T16:56:00;32.20;;;16.37;;
21183;SDS011;18176;49.502;11.754;2023-01-26T17:00:03;38.63;;;17.87;;
21183;SDS011;18176;49.502;11.754;2023-01-26T17:04:05;34.00;;;16.43;;
21183;SDS011;18176;49.502;11.754;2023-01-26T17:08:08;31.90;;;15.13;;
21183;SDS011;18176;49.502;11.754;2023-01-26T17:12:08;38.47;;;17.73;;
21183;SDS011;18176;49.502;11.754;2023-01-26T17:16:13;43.90;;;20.70;;
21183;SDS011;18176;49.502;11.754;2023-01-26T17:20:16;39.30;;;18.20;;
21183;SDS011;18176;49.502;11.754;2023-01-26T17:24:16;38.77;;;18.30;;
21183;SDS011;18176;49.502;11.754;2023-01-26T17:28:17;32.93;;;16.00;;
21183;SDS011;18176;49.502;11.754;2023-01-26T17:32:19;32.87;;;15.60;;
21183;SDS011;18176;49.502;11.754;2023-01-26T17:36:21;31.27;;;14.93;;
21183;SDS011;18176;49.502;11.754;2023-01-26T17:40:22;35.17;;;15.83;;
21183;SDS011;18176;49.502;11.754;2023-01-26T17:44:22;33.07;;;16.23;;
21183;SDS011;18176;49.502;11.754;2023-01-26T17:48:25;32.17;;;14.60;;
21183;SDS011;18176;49.502;11.754;2023-01-26T17:52:26;29.70;;;14.07;;
21183;SDS011;18176;49.502;11.754;2023-01-26T17:56:26;32.17;;;16.13;;
21183;SDS011;18176;49.502;11.754;2023-01-26T18:00:27;30.23;;;14.17;;
21183;SDS011;18176;49.502;11.754;2023-01-26T18:04:29;28.80;;;13.67;;
21183;SDS011;18176;49.502;11.754;2023-01-26T18:08:30;32.90;;;15.90;;
21183;SDS011;18176;49.502;11.754;2023-01-26T18:12:30;27.70;;;13.30;;
21183;SDS011;18176;49.502;11.754;2023-01-26T18:16:33;29.80;;;14.27;;
21183;SDS011;18176;49.502;11.754;2023-01-26T18:20:35;26.13;;;12.77;;
21183;SDS011;18176;49.502;11.754;2023-01-26T18:24:36;27.23;;;12.57;;
21183;SDS011;18176;49.502;11.754;2023-01-26T18:28:36;25.10;;;12.37;;
21183;SDS011;18176;49.502;11.754;2023-01-26T18:32:38;27.57;;;12.77;;
21183;SDS011;18176;49.502;11.754;2023-01-26T18:36:41;32.60;;;14.00;;
21183;SDS011;18176;49.502;11.754;2023-01-26T18:40:41;31.13;;;15.20;;
21183;SDS011;18176;49.502;11.754;2023-01-26T18:44:41;25.73;;;13.20;;
21183;SDS011;18176;49.502;11.754;2023-01-26T18:48:41;36.23;;;15.80;;
21183;SDS011;18176;49.502;11.754;2023-01-26T18:52:44;34.67;;;16.03;;
21183;SDS011;18176;49.502;11.754;2023-01-26T18:56:45;32.57;;;15.00;;
21183;SDS011;18176;49.502;11.754;2023-01-26T19:00:45;35.07;;;17.13;;
21183;SDS011;18176;49.502;11.754;2023-01-26T19:04:45;35.43;;;16.17;;
21183;SDS011;18176;49.502;11.754;2023-01-26T19:08:55;30.47;;;13.90;;
21183;SDS011;18176;49.502;11.754;2023-01-26T19:12:57;29.00;;;12.73;;
21183;SDS011;18176;49.502;11.754;2023-01-26T19:16:59;29.07;;;13.10;;
21183;SDS011;18176;49.502;11.754;2023-01-26T19:21:00;27.57;;;14.03;;
21183;SDS011;18176;49.502;11.754;2023-01-26T19:25:05;31.63;;;14.53;;
21183;SDS011;18176;49.502;11.754;2023-01-26T19:29:08;30.97;;;13.83;;
21183;SDS011;18176;49.502;11.754;2023-01-26T19:33:09;33.57;;;14.67;;
21183;SDS011;18176;49.502;11.754;2023-01-26T19:37:24;24.70;;;11.73;;
21183;SDS011;18176;49.502;11.754;2023-01-26T19:41:27;29.77;;;13.70;;
21183;SDS011;18176;49.502;11.754;2023-01-26T19:45:29;33.93;;;14.53;;
21183;SDS011;18176;49.502;11.754;2023-01-26T19:49:30;33.33;;;15.20;;
21183;SDS011;18176;49.502;11.754;2023-01-26T19:53:31;28.50;;;14.07;;
21183;SDS011;18176;49.502;11.754;2023-01-26T19:57:35;31.30;;;13.47;;
21183;SDS011;18176;49.502;11.754;2023-01-26T20:01:35;28.03;;;12.97;;
21183;SDS011;18176;49.502;11.754;2023-01-26T20:05:36;31.93;;;14.40;;
21183;SDS011;18176;49.502;11.754;2023-01-26T20:09:36;32.17;;;13.90;;
21183;SDS011;18176;49.502;11.754;2023-01-26T20:13:39;34.67;;;14.87;;
21183;SDS011;18176;49.502;11.754;2023-01-26T20:17:40;31.73;;;15.00;;
21183;SDS011;18176;49.502;11.754;2023-01-26T20:21:41;37.03;;;14.93;;
21183;SDS011;18176;49.502;11.754;2023-01-26T20:25:41;29.30;;;13.67;;
21183;SDS011;18176;49.502;11.754;2023-01-26T20:29:44;34.50;;;14.30;;
21183;SDS011;18176;49.502;11.754;2023-01-26T20:33:45;34.03;;;15.87;;
21183;SDS011;18176;49.502;11.754;2023-01-26T20:37:47;33.80;;;15.40;;
21183;SDS011;18176;49.502;11.754;2023-01-26T20:41:47;36.00;;;16.13;;
21183;SDS011;18176;49.502;11.754;2023-01-26T20:45:50;34.90;;;15.60;;
21183;SDS011;18176;49.502;11.754;2023-01-26T20:49:50;34.03;;;15.50;;
21183;SDS011;18176;49.502;11.754;2023-01-26T20:53:51;36.83;;;14.90;;
21183;SDS011;18176;49.502;11.754;2023-01-26T20:57:51;34.67;;;15.57;;
21183;SDS011;18176;49.502;11.754;2023-01-26T21:01:54;37.57;;;16.60;;
21183;SDS011;18176;49.502;11.754;2023-01-26T21:05:54;38.90;;;16.77;;
21183;SDS011;18176;49.502;11.754;2023-01-26T21:09:55;42.87;;;17.47;;
21183;SDS011;18176;49.502;11.754;2023-01-26T21:13:55;38.83;;;17.40;;
21183;SDS011;18176;49.502;11.754;2023-01-26T21:18:01;36.30;;;16.67;;
21183;SDS011;18176;49.502;11.754;2023-01-26T21:22:01;36.07;;;15.43;;
21183;SDS011;18176;49.502;11.754;2023-01-26T21:26:02;39.23;;;15.90;;
21183;SDS011;18176;49.502;11.754;2023-01-26T21:30:06;52.30;;;22.63;;
21183;SDS011;18176;49.502;11.754;2023-01-26T21:34:11;43.57;;;16.43;;
21183;SDS011;18176;49.502;11.754;2023-01-26T21:38:11;41.20;;;18.23;;
21183;SDS011;18176;49.502;11.754;2023-01-26T21:42:11;38.20;;;16.47;;
21183;SDS011;18176;49.502;11.754;2023-01-26T21:46:11;34.00;;;15.50;;
21183;SDS011;18176;49.502;11.754;2023-01-26T21:50:14;39.73;;;17.57;;
21183;SDS011;18176;49.502;11.754;2023-01-26T21:54:35;38.17;;;16.83;;
21183;SDS011;18176;49.502;11.754;2023-01-26T21:58:35;43.90;;;17.93;;
21183;SDS011;18176;49.502;11.754;2023-01-26T22:02:47;40.67;;;17.17;;
21183;SDS011;18176;49.502;11.754;2023-01-26T22:06:52;35.30;;;16.63;;
21183;SDS011;18176;49.502;11.754;2023-01-26T22:10:53;35.60;;;15.40;;
21183;SDS011;18176;49.502;11.754;2023-01-26T22:14:53;36.00;;;16.20;;
21183;SDS011;18176;49.502;11.754;2023-01-26T22:18:53;35.23;;;15.70;;
21183;SDS011;18176;49.502;11.754;2023-01-26T22:22:56;36.77;;;15.47;;
21183;SDS011;18176;49.502;11.754;2023-01-26T22:26:57;32.97;;;14.90;;
21183;SDS011;18176;49.502;11.754;2023-01-26T22:31:00;36.23;;;15.47;;
21183;SDS011;18176;49.502;11.754;2023-01-26T22:35:04;31.07;;;14.87;;
21183;SDS011;18176;49.502;11.754;2023-01-26T22:39:08;33.67;;;15.20;;
21183;SDS011;18176;49.502;11.754;2023-01-26T22:43:08;36.07;;;16.40;;
21183;SDS011;18176;49.502;11.754;2023-01-26T22:47:08;32.70;;;15.53;;
21183;SDS011;18176;49.502;11.754;2023-01-26T22:51:11;32.07;;;14.10;;
21183;SDS011;18176;49.502;11.754;2023-01-26T22:55:16;35.40;;;14.83;;
21183;SDS011;18176;49.502;11.754;2023-01-26T22:59:17;33.50;;;15.07;;
21183;SDS011;18176;49.502;11.754;2023-01-26T23:03:17;33.07;;;14.67;;
21183;SDS011;18176;49.502;11.754;2023-01-26T23:07:18;32.77;;;15.03;;
21183;SDS011;18176;49.502;11.754;2023-01-26T23:11:21;30.50;;;14.17;;
21183;SDS011;18176;49.502;11.754;2023-01-26T23:15:24;32.13;;;15.23;;
21183;SDS011;18176;49.502;11.754;2023-01-26T23:19:24;33.67;;;16.07;;
21183;SDS011;18176;49.502;11.754;2023-01-26T23:23:25;31.10;;;14.67;;
21183;SDS011;18176;49.502;11.754;2023-01-26T23:27:29;28.33;;;13.50;;
21183;SDS011;18176;49.502;11.754;2023-01-26T23:31:30;32.60;;;14.80;;
21183;SDS011;18176;49.502;11.754;2023-01-26T23:35:30;31.77;;;14.07;;
21183;SDS011;18176;49.502;11.754;2023-01-26T23:39:30;35.73;;;14.93;;
21183;SDS011;18176;49.502;11.754;2023-01-26T23:43:33;29.67;;;13.53;;
21183;SDS011;18176;49.502;11.754;2023-01-26T23:47:33;36.13;;;15.30;;
21183;SDS011;18176;49.502;11.754;2023-01-26T23:51:33;33.93;;;14.53;;
21183;SDS011;18176;49.502;11.754;2023-01-26T23:55:34;30.80;;;14.13;;